Time;durP1;ratioP1;P1;durP2;ratioP2;P2;SDS_P1;SDS_P2;PMS_P1;PMS_P2;Temp;Humidity;BMP_temperature;BMP_pressure;BME280_temperature;BME280_humidity;BME280_pressure;Samples;Min_cycle;Max_cycle;Signal;HPM_P1;HPM_P2
2023/05/15 00:01:05;;;;;;;36.20;21.20;;;;;;;10.81;100.00;101391.88;5058384;28;20491;-95
2023/05/15 00:03:31;;;;;;;33.40;21.87;;;;;;;10.69;100.00;101384.75;5040423;28;20098;-95
2023/05/15 00:06:09;;;;;;;34.33;20.00;;;;;;;10.73;100.00;101391.25;5057789;28;20059;-96
2023/05/15 00:08:40;;;;;;;33.97;20.98;;;;;;;10.71;100.00;101398.72;5038876;28;20032;-95
2023/05/15 00:11:05;;;;;;;36.85;22.38;;;;;;;10.54;100.00;101371.13;5040343;28;20572;-95
2023/05/15 00:13:31;;;;;;;37.37;20.57;;;;;;;10.51;100.00;101382.31;5017786;28;20124;-95
2023/05/15 00:16:07;;;;;;;34.37;21.90;;;;;;;10.51;100.00;101367.03;5019359;28;20350;-96
2023/05/15 00:18:32;;;;;;;34.53;21.55;;;;;;;10.62;100.00;101400.19;5036292;28;20033;-95
2023/05/15 00:20:58;;;;;;;34.63;21.20;;;;;;;10.50;100.00;101372.66;5036208;28;20026;-94
2023/05/15 00:23:23;;;;;;;34.73;21.60;;;;;;;10.45;100.00;101366.16;5035648;28;20457;-96
2023/05/15 00:25:49;;;;;;;32.10;20.13;;;;;;;10.40;100.00;101366.09;5035052;28;20095;-96
2023/05/15 00:28:14;;;;;;;36.80;21.33;;;;;;;10.44;100.00;101391.31;5018550;28;20029;-96
2023/05/15 00:30:46;;;;;;;37.03;22.03;;;;;;;10.21;100.00;101360.13;5042228;28;20048;-95
2023/05/15 00:33:11;;;;;;;34.33;20.98;;;;;;;10.18;100.00;101365.94;5055959;28;20064;-96
2023/05/15 00:35:37;;;;;;;32.80;21.30;;;;;;;10.29;100.00;101374.97;5058900;28;20038;-96
2023/05/15 00:38:02;;;;;;;37.28;21.65;;;;;;;10.10;100.00;101361.00;5059387;28;20017;-96
2023/05/15 00:40:33;;;;;;;33.03;20.67;;;;;;;10.24;100.00;101382.91;5034093;28;20028;-96
2023/05/15 00:42:59;;;;;;;39.25;22.27;;;;;;;10.04;100.00;101356.59;5060594;28;20021;-94
2023/05/15 00:45:44;;;;;;;37.60;22.60;;;;;;;10.14;100.00;101378.19;5060834;28;20383;-94
2023/05/15 00:48:10;;;;;;;36.00;22.55;;;;;;;10.02;100.00;101380.97;5045168;28;20400;-96
2023/05/15 00:50:38;;;;;;;38.92;23.15;;;;;;;9.91;100.00;101363.91;5061267;28;20048;-96
2023/05/15 00:53:05;;;;;;;36.97;22.87;;;;;;;9.92;100.00;101360.16;5062327;28;20078;-94
2023/05/15 00:55:32;;;;;;;39.47;22.57;;;;;;;9.83;100.00;101357.06;5063384;28;20299;-94
2023/05/15 00:57:59;;;;;;;39.50;23.13;;;;;;;9.75;100.00;101349.41;5056250;28;20119;-95
2023/05/15 01:00:25;;;;;;;41.75;23.20;;;;;;;9.80;100.00;101362.88;5073106;28;20238;-95
2023/05/15 01:02:51;;;;;;;43.17;24.45;;;;;;;9.66;100.00;101340.16;5075499;28;20031;-96
2023/05/15 01:05:16;;;;;;;39.10;23.00;;;;;;;9.67;100.00;101353.28;5075146;28;20016;-96
2023/05/15 01:07:58;;;;;;;39.63;24.45;;;;;;;9.74;100.00;101371.88;5072897;28;20017;-96
2023/05/15 01:10:37;;;;;;;40.15;24.17;;;;;;;9.54;100.00;101332.16;5071028;28;20040;-96
2023/05/15 01:13:17;;;;;;;39.43;22.57;;;;;;;9.55;100.00;101328.44;5055164;28;20129;-95
2023/05/15 01:15:43;;;;;;;43.57;24.80;;;;;;;9.65;100.00;101323.25;5056458;28;20343;-95
2023/05/15 01:18:08;;;;;;;42.47;24.17;;;;;;;9.74;100.00;101341.63;5054845;28;20022;-96
2023/05/15 01:21:00;;;;;;;41.30;24.43;;;;;;;9.89;100.00;101343.75;5052507;28;20512;-96
2023/05/15 01:27:12;;;;;;;40.42;23.48;;;;;;;10.02;100.00;101354.19;5027498;28;20029;-96
2023/05/15 01:33:21;;;;;;;39.38;23.40;;;;;;;9.91;100.00;101357.72;5039645;28;20049;-96
2023/05/15 01:35:51;;;;;;;36.00;22.55;;;;;;;9.81;100.00;101353.81;5042048;28;20022;-96
2023/05/15 01:38:20;;;;;;;44.37;23.83;;;;;;;9.78;100.00;101348.09;5060637;28;20021;-96
2023/05/15 01:41:15;;;;;;;39.17;23.87;;;;;;;9.59;100.00;101328.75;5068270;28;20280;-95
2023/05/15 01:43:44;;;;;;;43.90;24.13;;;;;;;9.62;100.00;101347.81;5050868;28;20037;-96
2023/05/15 01:46:14;;;;;;;39.22;23.67;;;;;;;9.34;100.00;101319.19;5032411;28;20014;-96
2023/05/15 01:48:42;;;;;;;41.58;23.80;;;;;;;9.46;100.00;101341.38;5043869;28;20029;-96
2023/05/15 01:51:10;;;;;;;40.53;23.88;;;;;;;9.31;100.00;101335.72;5044178;28;20033;-95
2023/05/15 01:53:37;;;;;;;43.45;24.90;;;;;;;9.24;100.00;101339.34;5042225;28;20029;-95
2023/05/15 01:56:08;;;;;;;46.45;25.77;;;;;;;9.16;100.00;101323.66;5030489;28;20017;-96
2023/05/15 01:58:43;;;;;;;48.50;25.15;;;;;;;9.07;100.00;101322.41;5045718;28;20028;-96
2023/05/15 02:01:09;;;;;;;39.65;23.73;;;;;;;9.09;100.00;101325.66;5075086;28;20020;-96
2023/05/15 02:07:49;;;;;;;;;;;;;;;;;;;;;
2023/05/15 02:10:19;;;;;;;43.20;23.23;;;;;;;8.98;100.00;101326.47;5050410;28;20067;-95
2023/05/15 02:12:45;;;;;;;45.08;24.63;;;;;;;8.83;100.00;101313.59;5061780;28;20035;-95
2023/05/15 02:15:23;;;;;;;42.05;24.77;;;;;;;8.86;100.00;101323.81;5078328;28;20025;-95
2023/05/15 02:17:58;;;;;;;45.80;25.80;;;;;;;8.97;100.00;101333.69;5076645;28;20044;-96
2023/05/15 02:20:24;;;;;;;51.53;26.35;;;;;;;8.88;100.00;101329.72;5042115;28;20026;-96
2023/05/15 02:22:53;;;;;;;49.35;25.60;;;;;;;8.77;100.00;101318.00;5044662;28;20025;-95
2023/05/15 02:25:46;;;;;;;46.65;25.48;;;;;;;8.79;100.00;101323.94;5044342;28;20037;-96
2023/05/15 02:28:21;;;;;;;45.73;24.00;;;;;;;8.70;100.00;101310.09;5028195;28;20040;-96
2023/05/15 02:30:56;;;;;;;48.07;25.67;;;;;;;8.82;100.00;101331.47;5024782;28;20292;-94
2023/05/15 02:33:25;;;;;;;41.58;24.85;;;;;;;8.90;100.00;101332.97;5041734;28;20412;-96
2023/05/15 02:35:57;;;;;;;45.08;24.75;;;;;;;8.85;100.00;101339.03;5023946;28;20052;-96
2023/05/15 02:38:32;;;;;;;46.72;26.30;;;;;;;8.68;100.00;101300.72;5008039;28;20061;-95
2023/05/15 02:40:59;;;;;;;50.83;26.20;;;;;;;8.69;100.00;101315.69;5045288;28;20052;-96
2023/05/15 02:43:26;;;;;;;46.60;24.65;;;;;;;8.85;100.00;101346.25;5063815;28;20081;-96
2023/05/15 02:45:53;;;;;;;47.85;25.35;;;;;;;8.62;100.00;101318.50;5047321;28;20025;-95
2023/05/15 02:48:19;;;;;;;49.10;25.98;;;;;;;8.77;100.00;101347.41;5065454;28;20226;-96
2023/05/15 02:51:30;;;;;;;48.03;26.37;;;;;;;8.77;100.00;101350.06;5046574;28;20423;-96
2023/05/15 02:54:01;;;;;;;48.60;26.33;;;;;;;8.75;100.00;101349.50;5044361;28;20330;-96
2023/05/15 02:56:27;;;;;;;54.58;27.38;;;;;;;8.59;100.00;101330.44;5047586;28;20017;-95
2023/05/15 02:58:53;;;;;;;50.63;27.38;;;;;;;8.53;100.00;101322.53;5065345;28;20465;-94
2023/05/15 03:01:18;;;;;;;53.00;27.53;;;;;;;8.63;100.00;101344.16;5063875;28;20036;-95
2023/05/15 03:03:43;;;;;;;51.17;26.60;;;;;;;8.55;100.00;101334.63;5064891;28;20021;-95
2023/05/15 03:06:09;;;;;;;59.17;28.95;;;;;;;8.63;100.00;101338.81;5046768;28;20036;-95
2023/05/15 03:08:34;;;;;;;53.57;28.20;;;;;;;8.47;100.00;101318.91;5047141;28;20040;-94
2023/05/15 03:11:00;;;;;;;52.23;28.50;;;;;;;8.49;100.00;101327.53;5065021;28;20029;-94
2023/05/15 03:13:26;;;;;;;56.10;29.98;;;;;;;8.54;100.00;101333.00;5074965;28;20069;-95
2023/05/15 03:15:52;;;;;;;54.97;28.73;;;;;;;8.42;100.00;101316.94;5075896;28;20032;-96
2023/05/15 03:18:18;;;;;;;58.40;30.30;;;;;;;8.40;100.00;101327.03;5075224;28;20040;-96
2023/05/15 03:20:47;;;;;;;61.33;30.42;;;;;;;8.40;100.00;101335.06;5070232;28;20109;-96
2023/05/15 03:23:12;;;;;;;58.20;29.50;;;;;;;8.36;100.00;101325.06;5038144;28;20025;-96
2023/05/15 03:25:39;;;;;;;59.97;30.30;;;;;;;8.34;100.00;101330.63;5048749;28;20025;-95
2023/05/15 03:28:04;;;;;;;59.50;29.58;;;;;;;8.29;100.00;101325.97;5075323;28;20051;-96
2023/05/15 03:30:30;;;;;;;53.40;28.57;;;;;;;8.28;100.00;101327.03;5074551;28;20028;-96
2023/05/15 03:32:56;;;;;;;58.50;29.70;;;;;;;8.14;100.00;101307.72;5040249;28;20033;-96
2023/05/15 03:35:22;;;;;;;57.20;29.38;;;;;;;8.21;100.00;101329.00;5049475;28;20022;-96
2023/05/15 03:37:55;;;;;;;60.17;29.33;;;;;;;8.19;100.00;101323.06;5031117;28;20453;-96
2023/05/15 03:40:20;;;;;;;62.30;29.25;;;;;;;8.15;100.00;101321.91;5042089;28;20013;-96
2023/05/15 03:42:46;;;;;;;60.07;28.80;;;;;;;8.08;100.00;101322.00;5032279;28;20025;-96
2023/05/15 03:45:11;;;;;;;60.40;29.27;;;;;;;8.15;100.00;101329.91;5022117;28;20300;-96
2023/05/15 03:47:37;;;;;;;57.93;28.57;;;;;;;7.97;100.00;101307.59;5027719;28;20025;-96
2023/05/15 03:50:02;;;;;;;61.13;28.75;;;;;;;8.01;100.00;101316.75;5023105;28;20116;-96
2023/05/15 03:52:28;;;;;;;56.03;28.07;;;;;;;7.97;100.00;101315.59;5040445;28;20033;-96
2023/05/15 03:55:04;;;;;;;58.57;28.57;;;;;;;7.98;100.00;101317.22;5062412;28;20025;-96
2023/05/15 03:57:31;;;;;;;57.42;28.15;;;;;;;7.98;100.00;101327.91;5058411;28;20029;-96
2023/05/15 03:59:57;;;;;;;63.75;30.63;;;;;;;7.92;100.00;101311.97;5045704;28;20037;-96
2023/05/15 04:02:22;;;;;;;63.88;29.88;;;;;;;7.96;100.00;101319.28;5041223;28;20041;-95
2023/05/15 04:04:48;;;;;;;63.30;29.20;;;;;;;7.97;100.00;101320.09;5021666;28;20481;-95
2023/05/15 04:07:13;;;;;;;62.03;28.90;;;;;;;7.87;100.00;101304.63;5038180;28;20064;-95
2023/05/15 04:09:39;;;;;;;63.20;28.60;;;;;;;7.79;100.00;101291.63;5038873;28;20029;-95
2023/05/15 04:12:04;;;;;;;60.00;28.40;;;;;;;7.93;100.00;101317.09;5057804;28;20088;-94
2023/05/15 04:14:30;;;;;;;59.70;28.63;;;;;;;7.78;100.00;101290.00;5069493;28;20033;-94
2023/05/15 04:16:55;;;;;;;62.88;29.85;;;;;;;7.80;100.00;101296.72;5077394;28;20049;-94
2023/05/15 04:19:21;;;;;;;55.77;28.23;;;;;;;7.83;100.00;101293.63;5058416;28;20021;-94
2023/05/15 04:21:46;;;;;;;60.67;29.27;;;;;;;8.00;100.00;101319.66;5066775;28;20508;-95
2023/05/15 04:24:11;;;;;;;62.13;29.17;;;;;;;7.96;100.00;101307.78;5058045;28;20108;-95
2023/05/15 04:26:37;;;;;;;63.07;29.93;;;;;;;8.06;100.00;101321.41;5043197;28;20480;-96
2023/05/15 04:29:02;;;;;;;60.42;29.17;;;;;;;8.13;100.00;101321.31;5060437;28;20092;-96
2023/05/15 04:31:30;;;;;;;64.30;30.43;;;;;;;8.06;100.00;101300.06;5054313;28;20024;-96
2023/05/15 04:33:55;;;;;;;62.95;31.92;;;;;;;8.22;100.00;101325.25;5041029;28;20122;-96
2023/05/15 04:36:21;;;;;;;67.47;31.98;;;;;;;8.37;100.00;101329.38;5039194;28;20547;-96
2023/05/15 04:38:47;;;;;;;68.37;32.07;;;;;;;8.32;100.00;101308.66;5041756;28;20412;-96
2023/05/15 04:41:12;;;;;;;69.25;31.73;;;;;;;8.59;100.00;101343.00;5059039;28;20063;-96
2023/05/15 04:43:39;;;;;;;74.53;32.17;;;;;;;8.63;100.00;101339.63;5058407;28;20025;-95
2023/05/15 04:46:14;;;;;;;75.10;33.25;;;;;;;8.77;100.00;101350.06;5060733;28;20037;-96
2023/05/15 04:48:49;;;;;;;68.22;31.88;;;;;;;8.82;100.00;101346.72;5041360;28;20469;-95
2023/05/15 04:51:15;;;;;;;69.93;31.70;;;;;;;8.85;100.00;101347.06;5068673;28;20088;-96
2023/05/15 04:53:40;;;;;;;67.47;31.80;;;;;;;8.88;100.00;101348.44;5063243;28;20063;-96
2023/05/15 04:56:06;;;;;;;65.13;30.20;;;;;;;8.84;100.00;101328.59;5086314;28;20095;-96
2023/05/15 04:58:31;;;;;;;69.13;31.67;;;;;;;9.03;100.00;101350.66;5078785;28;20611;-95
2023/05/15 05:00:57;;;;;;;64.67;30.27;;;;;;;9.13;100.00;101348.19;5059155;28;20479;-95
2023/05/15 05:03:23;;;;;;;65.07;30.92;;;;;;;9.29;100.00;101351.19;5061201;28;20078;-96
2023/05/15 05:05:55;;;;;;;63.50;30.40;;;;;;;9.47;100.00;101374.28;5079264;28;20043;-96
2023/05/15 05:08:20;;;;;;;61.17;29.58;;;;;;;9.51;100.00;101351.34;5078193;28;20070;-95
2023/05/15 05:10:45;;;;;;;61.83;29.43;;;;;;;9.57;100.00;101352.25;5072939;28;20024;-95
2023/05/15 05:13:11;;;;;;;60.40;28.27;;;;;;;9.77;100.00;101349.97;5057221;28;20017;-96
2023/05/15 05:15:36;;;;;;;66.03;30.37;;;;;;;9.80;100.00;101336.13;5040548;28;20048;-96
2023/05/15 05:18:02;;;;;;;59.28;29.38;;;;;;;10.13;100.00;101376.59;5070291;28;20395;-96
2023/05/15 05:20:27;;;;;;;59.53;29.03;;;;;;;10.12;100.00;101370.41;5064084;28;20109;-95
2023/05/15 05:22:53;;;;;;;53.63;27.07;;;;;;;10.22;100.00;101377.00;5078239;28;20021;-96
2023/05/15 05:25:22;;;;;;;50.97;27.40;;;;;;;10.26;100.00;101373.59;5077777;28;20160;-96
2023/05/15 05:28:02;;;;;;;55.33;27.42;;;;;;;10.29;100.00;101380.34;5077076;28;20047;-96
2023/05/15 05:30:27;;;;;;;52.83;27.07;;;;;;;10.13;100.00;101349.81;5047390;28;20041;-95
2023/05/15 05:32:53;;;;;;;57.27;27.47;;;;;;;10.19;100.00;101372.13;5040056;28;20867;-96
2023/05/15 05:35:21;;;;;;;51.50;27.27;;;;;;;10.24;100.00;101389.09;5058286;28;20024;-95
2023/05/15 05:53:16;;;;;;;53.35;26.15;;;;;;;10.59;100.00;101390.78;4844655;26;20048;-93
2023/05/15 05:55:42;;;;;;;49.50;25.00;;;;;;;10.79;100.00;101388.63;5079630;28;20027;-89
2023/05/15 05:58:07;;;;;;;47.47;25.40;;;;;;;10.94;100.00;101388.88;5079808;28;20020;-93
2023/05/15 06:00:32;;;;;;;42.90;24.47;;;;;;;11.08;100.00;101393.91;5070212;28;20041;-91
2023/05/15 06:02:59;;;;;;;44.23;24.47;;;;;;;11.06;100.00;101391.44;5064439;28;20039;-91
2023/05/15 06:05:25;;;;;;;43.75;23.40;;;;;;;11.06;100.00;101400.31;5069780;28;20037;-90
2023/05/15 06:07:51;;;;;;;46.25;24.45;;;;;;;11.08;100.00;101393.91;5074381;28;20027;-94
2023/05/15 06:10:17;;;;;;;42.22;24.27;;;;;;;11.30;100.00;101396.59;5080181;28;20507;-91
2023/05/15 06:12:42;;;;;;;48.93;24.43;;;;;;;11.74;100.00;101396.59;5075910;28;20143;-91
2023/05/15 06:15:08;;;;;;;41.47;23.67;;;;;;;12.05;100.00;101399.63;5081458;28;20286;-91
2023/05/15 06:17:33;;;;;;;40.57;22.90;;;;;;;12.11;100.00;101397.78;5094954;28;20028;-92
2023/05/15 06:19:58;;;;;;;39.20;22.67;;;;;;;12.30;100.00;101400.94;5090273;28;20029;-91
2023/05/15 06:22:24;;;;;;;38.93;22.57;;;;;;;12.57;100.00;101408.97;5080715;28;20020;-91
2023/05/15 06:24:49;;;;;;;38.35;21.88;;;;;;;12.66;100.00;101405.78;5086082;28;20017;-92
2023/05/15 06:27:14;;;;;;;35.33;20.27;;;;;;;12.70;100.00;101407.69;5069692;28;20028;-92
2023/05/15 06:29:40;;;;;;;37.27;20.43;;;;;;;12.74;100.00;101410.69;5066039;28;20057;-92
2023/05/15 06:32:05;;;;;;;31.50;20.27;;;;;;;12.65;100.00;101401.47;5065638;28;20052;-90
2023/05/15 06:34:31;;;;;;;30.33;19.67;;;;;;;12.64;100.00;101408.75;5054590;28;20396;-91
2023/05/15 06:36:56;;;;;;;33.50;20.17;;;;;;;12.59;100.00;101405.22;5061285;28;20064;-93
2023/05/15 06:39:21;;;;;;;34.53;20.47;;;;;;;12.34;100.00;101401.22;5063489;28;20052;-93
2023/05/15 06:41:47;;;;;;;31.47;19.77;;;;;;;12.13;100.00;101392.97;5068620;28;20020;-92
2023/05/15 06:44:12;;;;;;;34.23;22.30;;;;;;;12.08;100.00;101393.75;5061890;28;20025;-93
2023/05/15 06:46:37;;;;;;;37.38;21.25;;;;;;;12.09;100.00;101398.06;5062459;28;20083;-92
2023/05/15 06:49:03;;;;;;;40.10;21.83;;;;;;;12.04;100.00;101389.94;5064412;28;20033;-92
2023/05/15 06:51:28;;;;;;;31.13;20.63;;;;;;;12.19;100.00;101396.53;5055799;28;20052;-92
2023/05/15 06:53:53;;;;;;;32.67;20.23;;;;;;;12.21;100.00;101400.59;5054261;28;20045;-91
2023/05/15 06:56:19;;;;;;;34.58;20.10;;;;;;;12.37;100.00;101406.09;5053319;28;20056;-92
2023/05/15 06:58:44;;;;;;;37.07;21.93;;;;;;;12.57;100.00;101405.44;5073050;28;20028;-91
2023/05/15 07:01:09;;;;;;;37.40;22.20;;;;;;;12.68;100.00;101400.97;5071350;28;20032;-92
2023/05/15 07:03:35;;;;;;;36.47;22.07;;;;;;;12.94;100.00;101409.22;5069468;28;20020;-93
2023/05/15 07:06:00;;;;;;;31.53;21.40;;;;;;;13.01;100.00;101391.78;5067082;28;20035;-93
2023/05/15 07:08:25;;;;;;;35.87;22.33;;;;;;;13.40;100.00;101404.09;5080150;28;20036;-93
2023/05/15 07:10:52;;;;;;;34.75;22.02;;;;;;;13.57;98.62;101390.44;5073326;28;20025;-93
2023/05/15 07:13:19;;;;;;;29.77;21.10;;;;;;;13.60;97.61;101399.88;5059643;28;20025;-92
2023/05/15 07:15:44;;;;;;;30.77;20.53;;;;;;;13.65;96.73;101396.38;5071459;28;20355;-94
2023/05/15 07:18:11;;;;;;;33.00;22.65;;;;;;;13.72;97.38;101392.34;5057607;28;20031;-94
2023/05/15 07:20:37;;;;;;;34.38;22.92;;;;;;;13.82;97.49;101394.28;5062413;28;20036;-92
2023/05/15 07:23:02;;;;;;;29.53;20.57;;;;;;;14.12;97.05;101400.81;5059583;28;20025;-92
2023/05/15 07:25:28;;;;;;;30.75;21.48;;;;;;;14.46;96.12;101399.47;5075031;28;20293;-92
2023/05/15 07:27:53;;;;;;;34.60;20.50;;;;;;;14.60;92.49;101395.16;5060796;28;20025;-94
2023/05/15 07:30:19;;;;;;;33.00;21.33;;;;;;;14.94;92.88;101399.16;5061134;28;20029;-93
2023/05/15 07:32:47;;;;;;;27.65;19.33;;;;;;;15.02;88.04;101393.22;5064072;28;20025;-93
2023/05/15 07:35:15;;;;;;;26.95;19.30;;;;;;;15.18;90.13;101388.56;5029747;28;20029;-92
2023/05/15 07:37:40;;;;;;;25.97;17.73;;;;;;;15.23;86.30;101380.47;5070152;28;20043;-94
2023/05/15 07:40:06;;;;;;;30.23;19.80;;;;;;;15.49;84.77;101376.84;5062899;28;20279;-93
2023/05/15 07:42:32;;;;;;;31.80;20.75;;;;;;;15.62;82.86;101391.66;5059483;28;20044;-93
2023/05/15 07:44:58;;;;;;;30.53;20.17;;;;;;;15.79;83.05;101397.50;5061012;28;20497;-93
2023/05/15 07:47:34;;;;;;;30.90;20.17;;;;;;;15.67;84.48;101384.31;5083157;28;20123;-95
2023/05/15 07:49:59;;;;;;;26.45;19.50;;;;;;;15.78;82.69;101395.88;5064107;28;20090;-94
2023/05/15 07:52:25;;;;;;;26.20;19.30;;;;;;;15.65;81.32;101383.00;5055700;28;20028;-92
2023/05/15 07:54:50;;;;;;;28.07;19.50;;;;;;;15.36;81.25;101370.16;5063156;28;20010;-94
2023/05/15 07:57:27;;;;;;;23.80;18.40;;;;;;;15.35;84.42;101387.44;5060846;28;20025;-94
2023/05/15 07:59:53;;;;;;;28.67;19.57;;;;;;;15.21;84.57;101371.03;5047700;28;20032;-93
2023/05/15 08:02:18;;;;;;;30.15;20.70;;;;;;;15.18;83.85;101374.28;5065719;28;20040;-93
2023/05/15 08:04:56;;;;;;;27.53;18.67;;;;;;;15.21;86.82;101382.63;5059838;28;20021;-93
2023/05/15 08:07:36;;;;;;;30.00;20.83;;;;;;;15.25;87.16;101372.91;5058019;28;20150;-93
2023/05/15 08:10:18;;;;;;;28.38;20.90;;;;;;;15.29;84.61;101371.28;5066864;28;20040;-95
2023/05/15 08:12:45;;;;;;;26.60;19.63;;;;;;;15.48;84.32;101369.81;5040074;28;20428;-95
2023/05/15 08:15:12;;;;;;;27.47;20.33;;;;;;;15.73;84.38;101387.78;5059782;28;20786;-95
2023/05/15 08:17:37;;;;;;;28.70;20.92;;;;;;;15.73;85.43;101388.63;5060627;28;20051;-95
2023/05/15 08:20:04;;;;;;;34.40;20.70;;;;;;;15.82;84.09;101369.91;5066156;28;20025;-95
2023/05/15 08:22:33;;;;;;;27.42;20.30;;;;;;;16.01;84.13;101361.97;5059543;28;20028;-94
2023/05/15 08:25:07;;;;;;;30.23;22.27;;;;;;;16.15;79.75;101355.94;5064653;28;20033;-94
2023/05/15 08:27:36;;;;;;;28.67;20.83;;;;;;;16.49;80.35;101374.03;5048679;28;20100;-92
2023/05/15 08:30:02;;;;;;;31.17;20.90;;;;;;;16.73;80.04;101370.56;5036183;28;20286;-92
2023/05/15 08:32:31;;;;;;;29.65;20.20;;;;;;;16.86;76.91;101369.06;5054309;28;20480;-91
2023/05/15 08:35:02;;;;;;;27.95;19.35;;;;;;;17.24;76.27;101378.16;5054885;28;20021;-90
2023/05/15 08:37:33;;;;;;;31.00;22.48;;;;;;;17.40;74.43;101377.97;5059794;28;20017;-95
2023/05/15 08:40:18;;;;;;;32.97;20.80;;;;;;;17.69;72.80;101375.13;5058994;28;20033;-95
2023/05/15 08:42:49;;;;;;;31.83;21.90;;;;;;;17.84;69.63;101367.88;5041597;28;20092;-92
2023/05/15 08:45:24;;;;;;;31.58;22.65;;;;;;;18.15;70.42;101367.41;5036264;28;20025;-93
2023/05/15 08:47:50;;;;;;;31.52;23.92;;;;;;;18.77;70.50;101382.66;5057096;28;20055;-94
2023/05/15 08:50:18;;;;;;;39.00;24.70;;;;;;;19.18;66.67;101373.72;5037060;28;20089;-93
2023/05/15 08:52:48;;;;;;;35.70;25.40;;;;;;;19.44;63.84;101364.25;5036465;28;20583;-93
2023/05/15 08:55:14;;;;;;;37.47;26.77;;;;;;;19.90;62.12;101371.38;5052298;28;20299;-91
2023/05/15 08:57:40;;;;;;;36.22;26.55;;;;;;;20.04;61.79;101371.31;5055131;28;20021;-93
2023/05/15 09:00:25;;;;;;;;;;;;;;;;;;;;;
2023/05/15 09:02:52;;;;;;;39.70;26.60;;;;;;;20.09;60.29;101351.34;5033892;28;20048;-93
2023/05/15 09:05:23;;;;;;;34.80;25.08;;;;;;;20.01;61.83;101361.06;5072371;28;20180;-92
2023/05/15 09:08:02;;;;;;;38.92;28.00;;;;;;;19.95;63.35;101365.00;5072417;28;20353;-93
2023/05/15 09:10:28;;;;;;;38.75;28.55;;;;;;;20.05;60.38;101367.50;5074417;28;20043;-92
2023/05/15 09:12:54;;;;;;;39.53;27.03;;;;;;;20.42;60.36;101389.97;5078403;28;20448;-92
2023/05/15 09:15:23;;;;;;;41.38;28.35;;;;;;;20.58;59.46;101375.97;5082491;28;20449;-93
2023/05/15 09:17:58;;;;;;;35.80;26.92;;;;;;;20.99;60.07;101374.91;5053910;28;20077;-93
2023/05/15 09:20:35;;;;;;;36.05;26.27;;;;;;;20.88;58.04;101379.00;5071488;28;20055;-92
2023/05/15 09:23:03;;;;;;;34.85;26.45;;;;;;;21.02;57.39;101365.28;5054326;28;20036;-93
2023/05/15 09:25:43;;;;;;;37.08;26.58;;;;;;;21.46;57.53;101374.34;5054476;28;20096;-93
2023/05/15 09:28:46;;;;;;;36.70;27.20;;;;;;;21.78;57.04;101385.13;5073684;28;20021;-94
2023/05/15 09:31:33;;;;;;;38.40;27.03;;;;;;;21.94;55.31;101394.44;5058049;28;20291;-94
2023/05/15 09:34:09;;;;;;;39.35;28.05;;;;;;;21.71;54.29;101358.34;5083653;28;20017;-94
2023/05/15 09:36:42;;;;;;;37.55;27.70;;;;;;;21.65;53.63;101367.00;5075970;28;20048;-94
2023/05/15 09:39:26;;;;;;;36.25;27.08;;;;;;;21.75;56.05;101375.69;5074452;28;20028;-92
2023/05/15 09:42:05;;;;;;;35.10;26.58;;;;;;;21.73;56.61;101360.75;5076747;28;20012;-92
2023/05/15 09:44:32;;;;;;;35.40;25.50;;;;;;;21.71;53.34;101388.34;5077831;28;20094;-94
2023/05/15 09:47:04;;;;;;;42.20;26.17;;;;;;;21.47;54.92;101364.25;5064323;28;20021;-94
2023/05/15 09:49:46;;;;;;;26.65;19.20;;;;;;;21.36;52.82;101365.69;5081014;28;20024;-95
2023/05/15 09:52:15;;;;;;;24.75;17.65;;;;;;;21.01;54.06;101364.47;5079570;28;20025;-95
2023/05/15 09:55:04;;;;;;;21.77;17.47;;;;;;;20.70;54.56;101359.84;5081087;28;20575;-94
2023/05/15 09:58:07;;;;;;;32.20;22.55;;;;;;;20.66;59.10;101375.19;5068942;28;20060;-94
2023/05/15 10:03:31;;;;;;;24.73;19.35;;;;;;;20.77;54.45;101364.88;5078777;28;20029;-94
2023/05/15 10:06:02;;;;;;;27.47;19.60;;;;;;;20.73;55.61;101366.56;5079887;28;20025;-95
2023/05/15 10:08:30;;;;;;;26.85;18.95;;;;;;;20.78;55.84;101365.69;5085417;28;20025;-95
2023/05/15 10:11:07;;;;;;;24.30;19.27;;;;;;;20.80;55.85;101363.44;5062921;28;20028;-95
2023/05/15 10:13:34;;;;;;;28.15;19.65;;;;;;;20.78;55.45;101361.03;5055193;28;20048;-93
2023/05/15 10:16:02;;;;;;;26.33;20.08;;;;;;;20.82;57.26;101381.06;5071531;28;20476;-93
2023/05/15 10:18:32;;;;;;;27.85;19.27;;;;;;;20.87;56.94;101380.13;5071152;28;20052;-93
2023/05/15 10:21:02;;;;;;;28.80;21.10;;;;;;;20.70;57.93;101387.06;5053423;28;20048;-94
2023/05/15 10:23:29;;;;;;;27.95;21.10;;;;;;;20.58;56.66;101389.59;5056453;28;20029;-92
2023/05/15 10:26:02;;;;;;;26.90;20.93;;;;;;;20.77;57.53;101392.09;5074717;28;20777;-93
2023/05/15 10:28:28;;;;;;;30.23;21.97;;;;;;;20.62;57.60;101392.47;5075634;28;20324;-92
2023/05/15 10:30:58;;;;;;;29.08;20.63;;;;;;;20.39;59.17;101382.44;5075448;28;20102;-92
2023/05/15 10:33:24;;;;;;;29.15;20.55;;;;;;;20.45;59.46;101382.31;5075388;28;20548;-92
2023/05/15 10:35:50;;;;;;;29.63;21.30;;;;;;;20.27;59.07;101385.72;5074336;28;20032;-92
2023/05/15 10:38:18;;;;;;;28.75;21.63;;;;;;;19.92;60.75;101390.09;5075416;28;20498;-93
2023/05/15 10:40:44;;;;;;;31.13;22.08;;;;;;;19.83;60.34;101390.81;5076020;28;20054;-92
2023/05/15 10:43:11;;;;;;;29.63;20.53;;;;;;;19.96;61.96;101391.09;5081387;28;20028;-94
2023/05/15 10:45:37;;;;;;;34.30;23.40;;;;;;;19.89;60.59;101394.25;5084002;28;20290;-93
2023/05/15 10:48:06;;;;;;;31.77;22.42;;;;;;;19.72;62.33;101388.63;5082704;28;20024;-93
2023/05/15 10:50:32;;;;;;;33.55;22.15;;;;;;;19.69;63.07;101379.19;5086311;28;20081;-94
2023/05/15 10:52:58;;;;;;;29.88;21.60;;;;;;;19.57;63.33;101387.03;5080196;28;20021;-94
2023/05/15 10:55:24;;;;;;;31.63;22.92;;;;;;;19.23;64.93;101386.41;5061479;28;20021;-94
2023/05/15 10:57:50;;;;;;;31.40;23.87;;;;;;;19.13;65.67;101384.69;5079268;28;20096;-96
2023/05/15 11:00:44;;;;;;;34.75;22.60;;;;;;;19.04;65.94;101384.59;5065009;28;20032;-95
2023/05/15 11:03:15;;;;;;;31.88;22.58;;;;;;;18.81;67.55;101383.63;5077045;28;20035;-95
2023/05/15 11:10:02;;;;;;;29.50;22.42;;;;;;;19.28;67.27;101388.22;5081386;28;20063;-96
2023/05/15 11:13:05;;;;;;;30.07;21.83;;;;;;;19.36;65.59;101390.19;4947082;29;20132;-95
2023/05/15 11:15:48;;;;;;;35.07;23.90;;;;;;;18.90;67.92;101367.44;5043036;28;20284;-94
2023/05/15 11:18:26;;;;;;;32.20;23.98;;;;;;;19.00;67.29;101374.63;5050409;28;20029;-94
2023/05/15 11:20:57;;;;;;;32.17;24.52;;;;;;;19.34;66.92;101387.00;5067040;28;20027;-95
2023/05/15 11:27:00;;;;;;;32.42;23.63;;;;;;;19.43;65.73;101385.16;5084844;28;20041;-93
2023/05/15 11:29:46;;;;;;;31.30;23.80;;;;;;;19.21;64.73;101383.97;5086871;28;20054;-95
2023/05/15 11:36:06;;;;;;;34.22;24.60;;;;;;;18.53;69.34;101385.53;5091386;28;20051;-95
2023/05/15 11:38:38;;;;;;;36.13;25.05;;;;;;;18.34;69.56;101383.66;5066167;28;20036;-93
2023/05/15 11:41:20;;;;;;;36.67;25.90;;;;;;;18.16;69.85;101361.72;5049533;28;20063;-96
2023/05/15 11:43:47;;;;;;;35.93;27.03;;;;;;;18.06;69.50;101367.28;5049589;28;20317;-94
2023/05/15 11:46:13;;;;;;;40.47;28.20;;;;;;;18.12;70.27;101373.44;5067863;28;20029;-95
2023/05/15 11:48:46;;;;;;;38.75;27.50;;;;;;;17.93;72.01;101366.09;5052427;28;20032;-94
2023/05/15 11:51:23;;;;;;;38.75;28.30;;;;;;;17.90;72.07;101379.44;5091805;28;20040;-96
2023/05/15 11:53:50;;;;;;;37.95;27.92;;;;;;;17.67;73.03;101358.34;5080094;28;20009;-93
2023/05/15 11:56:22;;;;;;;45.22;28.55;;;;;;;17.57;73.14;101363.91;5077322;28;20031;-96
2023/05/15 11:58:54;;;;;;;39.85;27.27;;;;;;;17.61;74.35;101373.06;5091568;28;20051;-94
2023/05/15 12:01:21;;;;;;;43.67;27.50;;;;;;;17.46;74.09;101371.34;5086556;28;20040;-95